Time;durP1;ratioP1;P1;durP2;ratioP2;P2;SDS_P1;SDS_P2;PMS_P1;PMS_P2;Temp;Humidity;BMP_temperature;BMP_pressure;BME280_temperature;BME280_humidity;BME280_pressure;Samples;Min_cycle;Max_cycle;Signal;HPM_P1;HPM_P2
2024/03/14 00:00:17;;;;;;;8.10;3.83;;;17.00;99.90;;;;;;5065059;28;20024;-82
2024/03/14 00:02:46;;;;;;;13.57;4.53;;;16.90;99.90;;;;;;5071560;28;20041;-81
2024/03/14 00:05:12;;;;;;;11.57;5.30;;;16.90;99.90;;;;;;5072680;28;20763;-82
2024/03/14 00:07:38;;;;;;;9.77;4.18;;;16.90;99.90;;;;;;5072342;28;20035;-81
2024/03/14 00:10:07;;;;;;;10.17;4.47;;;16.90;99.90;;;;;;5056719;28;20517;-80
2024/03/14 00:12:33;;;;;;;8.50;4.53;;;16.90;99.90;;;;;;5068500;28;20116;-81
2024/03/14 00:14:58;;;;;;;9.90;4.50;;;16.90;99.90;;;;;;5072717;28;20027;-85
2024/03/14 00:17:25;;;;;;;9.10;4.53;;;16.90;99.90;;;;;;5072966;28;20025;-79
2024/03/14 00:19:51;;;;;;;10.05;4.32;;;16.90;99.90;;;;;;5073400;28;20445;-80
2024/03/14 00:22:19;;;;;;;7.45;4.03;;;16.90;99.90;;;;;;5071562;28;20086;-80
2024/03/14 00:24:45;;;;;;;8.23;3.83;;;16.90;99.90;;;;;;5072720;28;20024;-80
2024/03/14 00:27:13;;;;;;;10.70;4.82;;;16.80;99.90;;;;;;5064294;28;20102;-81
2024/03/14 00:29:41;;;;;;;7.75;3.72;;;16.80;99.90;;;;;;5065928;28;20420;-80
2024/03/14 00:32:07;;;;;;;8.52;4.00;;;16.80;99.90;;;;;;5073328;28;20032;-80
2024/03/14 00:34:33;;;;;;;9.43;5.00;;;16.80;99.90;;;;;;5071627;28;20051;-82
2024/03/14 00:37:01;;;;;;;9.97;4.00;;;16.80;99.90;;;;;;5071875;28;20044;-80
2024/03/14 00:39:26;;;;;;;9.15;4.00;;;16.80;99.90;;;;;;5072189;28;20028;-82
2024/03/14 00:41:53;;;;;;;6.70;3.50;;;16.80;99.90;;;;;;5072054;28;20351;-82
2024/03/14 00:44:19;;;;;;;;;;;16.80;99.90;;;;;;5071787;28;20024;-80
2024/03/14 00:46:45;;;;;;;7.17;3.87;;;16.80;99.90;;;;;;5073418;28;20261;-80
2024/03/14 00:49:11;;;;;;;9.55;3.85;;;16.80;99.90;;;;;;5071455;28;20025;-80
2024/03/14 00:51:37;;;;;;;7.72;3.80;;;16.80;99.90;;;;;;5071715;28;20035;-83
2024/03/14 00:54:04;;;;;;;8.80;3.93;;;16.80;99.90;;;;;;5071673;28;20032;-84
2024/03/14 00:56:30;;;;;;;;;;;16.70;99.90;;;;;;5072105;28;20027;-81
2024/03/14 00:58:56;;;;;;;8.15;3.47;;;16.80;99.90;;;;;;5072053;28;19922;-82
2024/03/14 01:01:25;;;;;;;6.07;3.47;;;16.80;99.90;;;;;;5070844;28;20028;-80
2024/03/14 01:03:57;;;;;;;6.97;3.20;;;16.70;99.90;;;;;;5071779;28;20477;-79
2024/03/14 01:06:24;;;;;;;7.68;3.42;;;16.70;99.90;;;;;;5071353;28;20031;-83
2024/03/14 01:08:50;;;;;;;7.35;3.47;;;16.70;99.90;;;;;;5070959;28;20021;-80
2024/03/14 01:11:19;;;;;;;4.87;3.00;;;16.70;99.90;;;;;;5071356;28;20023;-82
2024/03/14 01:13:45;;;;;;;6.53;3.35;;;16.70;99.90;;;;;;5058328;28;20021;-80
2024/03/14 01:16:10;;;;;;;7.23;3.60;;;16.70;99.90;;;;;;5070830;28;20026;-80
2024/03/14 01:18:36;;;;;;;5.80;2.90;;;16.70;99.90;;;;;;5071427;28;20027;-81
2024/03/14 01:21:03;;;;;;;7.30;3.80;;;16.70;99.90;;;;;;5071519;28;20366;-80
2024/03/14 01:23:29;;;;;;;7.15;3.58;;;16.70;99.90;;;;;;5071539;28;20051;-80
2024/03/14 01:25:55;;;;;;;8.43;3.63;;;16.70;99.90;;;;;;5070894;28;20111;-79
2024/03/14 01:28:20;;;;;;;5.13;2.73;;;16.70;99.90;;;;;;5071227;28;20090;-80
2024/03/14 01:30:46;;;;;;;4.57;3.07;;;16.70;99.90;;;;;;5071582;28;20018;-80
2024/03/14 01:33:11;;;;;;;6.07;3.47;;;16.70;99.90;;;;;;5071288;28;20512;-82
2024/03/14 01:35:37;;;;;;;9.20;3.27;;;16.60;99.90;;;;;;5072586;28;20509;-82
2024/03/14 01:38:03;;;;;;;6.93;3.33;;;16.60;99.90;;;;;;5072649;28;20343;-83
2024/03/14 01:40:29;;;;;;;6.67;3.23;;;16.60;99.90;;;;;;5071166;28;20020;-84
2024/03/14 01:42:56;;;;;;;6.97;3.63;;;16.60;99.90;;;;;;5071049;28;20036;-81
2024/03/14 01:45:22;;;;;;;5.55;3.33;;;16.60;99.90;;;;;;5070825;28;20348;-79
2024/03/14 01:47:48;;;;;;;6.30;3.33;;;16.60;99.90;;;;;;5071601;28;20088;-79
2024/03/14 01:50:14;;;;;;;;;;;16.60;99.90;;;;;;5071297;28;20032;-80
2024/03/14 01:52:40;;;;;;;5.22;3.55;;;16.60;99.90;;;;;;5062942;28;19912;-82
2024/03/14 01:55:10;;;;;;;6.03;3.17;;;16.60;99.90;;;;;;5070370;28;20373;-83
2024/03/14 01:57:36;;;;;;;4.97;3.15;;;16.50;99.90;;;;;;5070401;28;20363;-84
2024/03/14 02:00:04;;;;;;;7.32;2.78;;;16.60;99.90;;;;;;5070277;28;20420;-79
2024/03/14 02:02:32;;;;;;;4.90;3.38;;;16.50;99.90;;;;;;5070138;28;20427;-81
2024/03/14 02:05:10;;;;;;;6.10;3.38;;;16.60;99.90;;;;;;5070303;28;20059;-79
2024/03/14 02:07:40;;;;;;;6.25;3.03;;;16.60;99.90;;;;;;5069622;28;20086;-78
2024/03/14 02:10:07;;;;;;;3.83;2.40;;;16.50;99.90;;;;;;5070300;28;20067;-80
2024/03/14 02:12:33;;;;;;;5.93;3.05;;;16.50;99.90;;;;;;5071433;28;20066;-80
2024/03/14 02:15:02;;;;;;;3.27;2.23;;;16.50;99.90;;;;;;5069734;28;20025;-79
2024/03/14 02:17:28;;;;;;;5.95;2.55;;;16.50;99.90;;;;;;5070280;28;20078;-81
2024/03/14 02:19:55;;;;;;;3.80;2.40;;;16.50;99.90;;;;;;5071458;28;20016;-80
2024/03/14 02:22:21;;;;;;;4.75;2.72;;;16.50;99.90;;;;;;5070048;28;20041;-79
2024/03/14 02:24:47;;;;;;;7.97;2.93;;;16.50;99.90;;;;;;5070391;28;20035;-83
2024/03/14 02:27:14;;;;;;;3.95;2.53;;;16.50;99.90;;;;;;5070480;28;20265;-81
2024/03/14 02:29:40;;;;;;;4.03;2.50;;;16.50;99.90;;;;;;5070273;28;20136;-80
2024/03/14 02:32:06;;;;;;;5.30;2.90;;;16.50;99.90;;;;;;5072222;28;20036;-80
2024/03/14 02:34:32;;;;;;;4.00;2.80;;;16.50;99.90;;;;;;5070275;28;20386;-80
2024/03/14 02:36:57;;;;;;;3.63;2.27;;;16.50;99.90;;;;;;5072193;28;20473;-80
2024/03/14 02:39:23;;;;;;;3.67;2.43;;;16.40;99.90;;;;;;5070246;28;20377;-80
2024/03/14 02:41:50;;;;;;;4.27;2.30;;;16.50;99.90;;;;;;5069780;28;20024;-83
2024/03/14 02:44:16;;;;;;;;;;;16.40;99.90;;;;;;5070679;28;20145;-79
2024/03/14 02:46:42;;;;;;;;;;;16.40;99.90;;;;;;5070765;28;20006;-80
2024/03/14 02:49:14;;;;;;;2.63;1.98;;;16.40;99.90;;;;;;5071596;28;20042;-82
2024/03/14 02:51:45;;;;;;;5.13;2.40;;;16.40;99.90;;;;;;5069696;28;20085;-85
2024/03/14 02:54:15;;;;;;;4.57;3.00;;;16.40;99.90;;;;;;5070114;28;20031;-82
2024/03/14 02:56:48;;;;;;;3.88;2.42;;;16.40;99.90;;;;;;5063968;28;20032;-80
2024/03/14 02:59:14;;;;;;;4.22;2.80;;;16.40;99.90;;;;;;5069883;28;20611;-83
2024/03/14 03:01:40;;;;;;;4.60;2.40;;;16.40;99.90;;;;;;5069956;28;20028;-83
2024/03/14 03:04:07;;;;;;;4.23;2.30;;;16.40;99.90;;;;;;5069590;28;20389;-83
2024/03/14 03:06:33;;;;;;;3.35;2.03;;;16.40;99.90;;;;;;5074193;28;20024;-80
2024/03/14 03:09:00;;;;;;;3.97;2.47;;;16.30;99.90;;;;;;5074260;28;20052;-80
2024/03/14 03:11:27;;;;;;;3.25;2.15;;;16.40;99.90;;;;;;5073354;28;20040;-80
2024/03/14 03:13:52;;;;;;;5.95;3.08;;;16.30;99.90;;;;;;5073643;28;20111;-78
2024/03/14 03:16:19;;;;;;;5.30;2.50;;;16.30;99.90;;;;;;5074211;28;20103;-80
2024/03/14 03:18:45;;;;;;;4.00;2.45;;;16.30;99.90;;;;;;5072762;28;20606;-81
2024/03/14 03:21:10;;;;;;;3.73;2.80;;;16.30;99.90;;;;;;5072592;28;20167;-80
2024/03/14 03:23:36;;;;;;;2.87;2.10;;;16.30;99.90;;;;;;5073100;28;20045;-81
2024/03/14 03:26:05;;;;;;;2.97;2.20;;;16.30;99.90;;;;;;5073960;28;20071;-80
2024/03/14 03:28:31;;;;;;;4.15;2.28;;;16.30;99.90;;;;;;5073911;28;20117;-80
2024/03/14 03:30:57;;;;;;;5.03;2.37;;;16.30;99.90;;;;;;5073604;28;20021;-80
2024/03/14 03:33:23;;;;;;;4.20;2.13;;;16.30;99.90;;;;;;5073407;28;20028;-80
2024/03/14 03:35:49;;;;;;;4.53;2.60;;;16.30;99.90;;;;;;5073332;28;20028;-82
2024/03/14 03:38:15;;;;;;;2.73;2.07;;;16.30;99.90;;;;;;5074310;28;20108;-80
2024/03/14 03:40:41;;;;;;;4.53;2.40;;;16.30;99.90;;;;;;5074189;28;20024;-81
2024/03/14 03:43:08;;;;;;;2.63;1.80;;;16.30;99.90;;;;;;5073455;28;20116;-81
2024/03/14 03:45:34;;;;;;;4.65;2.15;;;16.20;99.90;;;;;;5074703;28;20027;-80
2024/03/14 03:48:02;;;;;;;4.05;2.53;;;16.20;99.90;;;;;;5072407;28;20078;-80
2024/03/14 03:50:28;;;;;;;4.38;2.13;;;16.20;99.90;;;;;;5073175;28;20029;-80
2024/03/14 03:52:55;;;;;;;4.40;2.37;;;16.20;99.90;;;;;;5073219;28;20020;-82
2024/03/14 03:55:21;;;;;;;3.10;2.35;;;16.20;99.90;;;;;;5073044;28;20024;-83
2024/03/14 03:57:47;;;;;;;3.92;2.42;;;16.20;99.90;;;;;;5061305;28;20052;-80
2024/03/14 04:00:32;;;;;;;6.03;2.10;;;16.20;99.90;;;;;;5070985;28;20074;-82
2024/03/14 04:02:59;;;;;;;2.75;2.03;;;16.20;99.90;;;;;;5072811;28;20036;-82
2024/03/14 04:05:27;;;;;;;6.13;2.20;;;16.20;99.90;;;;;;5072330;28;20024;-80
2024/03/14 04:07:55;;;;;;;1.98;1.70;;;16.20;99.90;;;;;;5074206;28;20025;-86
2024/03/14 04:10:23;;;;;;;2.97;2.22;;;16.20;99.90;;;;;;5072967;28;20020;-80
2024/03/14 04:12:56;;;;;;;3.35;2.20;;;16.20;99.90;;;;;;5072665;28;20564;-80
2024/03/14 04:15:21;;;;;;;3.70;2.22;;;16.20;99.90;;;;;;5073053;28;20131;-80
2024/03/14 04:17:51;;;;;;;3.63;1.90;;;16.10;99.90;;;;;;5071936;28;20520;-80
2024/03/14 04:20:17;;;;;;;2.85;2.05;;;16.10;99.90;;;;;;5072561;28;20106;-80
2024/03/14 04:22:47;;;;;;;4.05;2.13;;;16.10;99.90;;;;;;5072093;28;20083;-79
2024/03/14 04:25:17;;;;;;;2.47;1.85;;;16.10;99.90;;;;;;5072541;28;20389;-85
2024/03/14 04:27:50;;;;;;;2.70;1.98;;;16.10;99.90;;;;;;5072406;28;20119;-83
2024/03/14 04:30:20;;;;;;;2.88;1.73;;;16.10;99.90;;;;;;5072451;28;20108;-80
2024/03/14 04:32:47;;;;;;;4.15;1.80;;;16.10;99.90;;;;;;5073487;28;20107;-80
2024/03/14 04:35:15;;;;;;;3.95;2.20;;;16.10;99.90;;;;;;5072541;28;20023;-80
2024/03/14 04:37:47;;;;;;;3.60;2.05;;;16.10;99.90;;;;;;5072474;28;20021;-82
2024/03/14 04:40:13;;;;;;;2.60;1.90;;;16.10;99.90;;;;;;5071972;28;20120;-80
2024/03/14 04:42:43;;;;;;;3.00;1.90;;;16.10;99.90;;;;;;5071743;28;20025;-80
2024/03/14 04:45:09;;;;;;;6.78;2.00;;;16.00;99.90;;;;;;5071205;28;20031;-79
2024/03/14 04:47:36;;;;;;;2.15;1.95;;;16.00;99.90;;;;;;5072383;28;20361;-80
2024/03/14 04:50:03;;;;;;;2.42;1.75;;;16.00;99.90;;;;;;5070023;28;20097;-82
2024/03/14 04:52:30;;;;;;;3.08;2.13;;;16.00;99.90;;;;;;5071813;28;20028;-80
2024/03/14 04:54:55;;;;;;;2.25;1.77;;;16.00;99.90;;;;;;5073235;28;20020;-84
2024/03/14 04:57:22;;;;;;;2.13;1.70;;;16.00;99.90;;;;;;5071941;28;20036;-81
2024/03/14 04:59:48;;;;;;;3.22;1.95;;;16.00;99.90;;;;;;5071723;28;20020;-80
2024/03/14 05:02:15;;;;;;;2.28;1.92;;;16.00;99.90;;;;;;5072954;28;20028;-81
2024/03/14 05:04:41;;;;;;;4.82;2.00;;;16.00;99.90;;;;;;5072571;28;20040;-79
2024/03/14 05:07:07;;;;;;;2.23;1.70;;;16.00;99.90;;;;;;5071293;28;20040;-80
2024/03/14 05:09:33;;;;;;;3.92;2.42;;;16.00;99.90;;;;;;5071657;28;20027;-86
2024/03/14 05:11:59;;;;;;;3.60;2.17;;;15.90;99.90;;;;;;5075423;28;20037;-83
2024/03/14 05:14:25;;;;;;;2.20;2.00;;;16.00;99.90;;;;;;5071109;28;20036;-80
2024/03/14 05:16:51;;;;;;;2.57;1.80;;;15.90;99.90;;;;;;5071591;28;20115;-80
2024/03/14 05:19:20;;;;;;;4.60;2.13;;;15.90;99.90;;;;;;5071164;28;20028;-81
2024/03/14 05:21:46;;;;;;;2.78;1.85;;;15.90;99.90;;;;;;5071256;28;20028;-81
2024/03/14 05:24:12;;;;;;;3.78;2.15;;;15.90;99.90;;;;;;5071421;28;20397;-80
2024/03/14 05:26:40;;;;;;;2.47;1.97;;;15.90;99.90;;;;;;5071797;28;20039;-82
2024/03/14 05:29:06;;;;;;;4.32;2.33;;;15.90;99.90;;;;;;5070658;28;20388;-81
2024/03/14 05:31:35;;;;;;;2.33;1.90;;;15.90;99.90;;;;;;5071432;28;20033;-80
2024/03/14 05:34:01;;;;;;;2.67;1.85;;;15.90;99.90;;;;;;5063505;28;20025;-85
2024/03/14 05:36:27;;;;;;;4.67;2.47;;;15.90;99.90;;;;;;5069645;28;20024;-81
2024/03/14 05:38:52;;;;;;;4.70;2.17;;;15.90;99.90;;;;;;5070898;28;20270;-85
2024/03/14 05:41:18;;;;;;;6.00;2.30;;;15.90;99.90;;;;;;5071519;28;20343;-82
2024/03/14 05:43:45;;;;;;;3.97;2.20;;;15.90;99.90;;;;;;5070691;28;20029;-82
2024/03/14 05:46:12;;;;;;;4.18;2.83;;;15.90;99.90;;;;;;5072359;28;20012;-80
2024/03/14 05:48:38;;;;;;;4.30;2.05;;;15.80;99.90;;;;;;5071954;28;20028;-83
2024/03/14 05:51:04;;;;;;;4.23;2.37;;;15.80;99.90;;;;;;5071169;28;20028;-85
2024/03/14 05:53:31;;;;;;;2.72;2.35;;;15.80;99.90;;;;;;5070563;28;20056;-83
2024/03/14 05:56:02;;;;;;;2.95;2.15;;;15.80;99.90;;;;;;5071411;28;20129;-80
2024/03/14 05:58:31;;;;;;;3.28;2.10;;;15.80;99.90;;;;;;5071445;28;20361;-82
2024/03/14 06:00:57;;;;;;;2.70;2.13;;;15.80;99.90;;;;;;5070497;28;20525;-80
2024/03/14 06:03:22;;;;;;;4.17;2.40;;;15.80;99.90;;;;;;5069792;28;20040;-79
2024/03/14 06:05:52;;;;;;;3.17;2.13;;;15.80;99.90;;;;;;5070455;28;20027;-80
2024/03/14 06:08:19;;;;;;;2.95;2.13;;;15.80;99.90;;;;;;5071740;28;20017;-83
2024/03/14 06:10:45;;;;;;;2.38;1.95;;;15.80;99.90;;;;;;5070441;28;20072;-83
2024/03/14 06:13:11;;;;;;;3.38;2.55;;;15.80;99.90;;;;;;5070393;28;20472;-81
2024/03/14 06:15:38;;;;;;;2.80;2.33;;;15.80;99.90;;;;;;5070675;28;20032;-83
2024/03/14 06:18:05;;;;;;;2.92;2.28;;;15.80;99.90;;;;;;5070700;28;20031;-83
2024/03/14 06:20:33;;;;;;;3.03;2.30;;;15.80;99.90;;;;;;5070517;28;20373;-80
2024/03/14 06:22:59;;;;;;;2.88;2.22;;;15.80;99.90;;;;;;5069852;28;20060;-79
2024/03/14 06:25:24;;;;;;;2.93;2.03;;;15.80;99.90;;;;;;5070105;28;20154;-84
2024/03/14 06:27:52;;;;;;;2.90;2.00;;;15.80;99.90;;;;;;5070155;28;20373;-81
2024/03/14 06:30:18;;;;;;;3.33;2.08;;;15.80;99.90;;;;;;5070465;28;20116;-80
2024/03/14 06:32:47;;;;;;;3.08;2.13;;;15.90;99.90;;;;;;5069509;28;20028;-80
2024/03/14 06:35:13;;;;;;;2.85;2.50;;;15.80;99.90;;;;;;5069906;28;20535;-82
2024/03/14 06:37:40;;;;;;;3.58;2.58;;;15.90;99.90;;;;;;5069854;28;20044;-83
2024/03/14 06:40:06;;;;;;;3.33;2.88;;;15.90;99.90;;;;;;5072746;28;20039;-82
2024/03/14 06:42:35;;;;;;;3.70;2.20;;;15.90;99.90;;;;;;5074443;28;20031;-79
2024/03/14 06:45:03;;;;;;;3.63;2.53;;;16.10;99.90;;;;;;5074408;28;20730;-80
2024/03/14 06:47:34;;;;;;;3.83;2.65;;;16.10;99.90;;;;;;5074090;28;20028;-81
2024/03/14 06:50:00;;;;;;;4.35;2.03;;;16.20;99.90;;;;;;5074034;28;20035;-81
2024/03/14 06:52:26;;;;;;;3.23;2.60;;;16.30;99.90;;;;;;5074637;28;20029;-83
2024/03/14 06:54:55;;;;;;;2.78;2.15;;;16.40;99.90;;;;;;5073235;28;20108;-80
2024/03/14 06:57:21;;;;;;;3.47;2.50;;;16.40;99.90;;;;;;5073833;28;20120;-82
2024/03/14 06:59:52;;;;;;;3.67;2.57;;;16.50;99.90;;;;;;5073996;28;20101;-81
2024/03/14 07:02:18;;;;;;;3.13;2.30;;;16.50;99.90;;;;;;5073777;28;20021;-80
2024/03/14 07:04:44;;;;;;;4.15;2.53;;;16.60;99.90;;;;;;5073801;28;20033;-80
2024/03/14 07:07:11;;;;;;;4.18;2.50;;;16.80;99.90;;;;;;5073126;28;20473;-80
2024/03/14 07:09:39;;;;;;;2.97;2.30;;;16.90;99.90;;;;;;5073666;28;20021;-80
2024/03/14 07:12:09;;;;;;;3.00;2.42;;;16.90;99.90;;;;;;5073987;28;20040;-79
2024/03/14 07:14:35;;;;;;;3.05;2.47;;;17.00;99.90;;;;;;5067130;28;20036;-81
2024/03/14 07:17:02;;;;;;;5.35;2.80;;;17.10;99.90;;;;;;5074416;28;20808;-80
2024/03/14 07:19:28;;;;;;;5.00;2.25;;;17.30;99.90;;;;;;5073262;28;20110;-80
2024/03/14 07:21:59;;;;;;;5.97;2.50;;;17.50;99.90;;;;;;5074516;28;20081;-82
2024/03/14 07:24:25;;;;;;;3.70;2.15;;;17.60;99.90;;;;;;5073704;28;20028;-80
2024/03/14 07:26:53;;;;;;;5.13;2.58;;;17.70;99.90;;;;;;5074748;28;20354;-79
2024/03/14 07:29:19;;;;;;;3.55;2.33;;;17.80;99.90;;;;;;5072990;28;20377;-82
2024/03/14 07:31:47;;;;;;;4.30;2.47;;;17.80;99.90;;;;;;5074177;28;20025;-80
2024/03/14 07:34:14;;;;;;;2.85;2.30;;;17.90;99.90;;;;;;5073700;28;20117;-80
2024/03/14 07:36:41;;;;;;;2.83;2.17;;;17.90;99.90;;;;;;5073580;28;20038;-80
2024/03/14 07:39:10;;;;;;;6.28;2.33;;;18.10;99.90;;;;;;5073414;28;20146;-81
2024/03/14 07:41:40;;;;;;;3.60;2.35;;;18.20;99.90;;;;;;5072646;28;20012;-78
2024/03/14 07:44:06;;;;;;;7.22;2.40;;;18.90;99.90;;;;;;5073415;28;20025;-79
2024/03/14 07:46:32;;;;;;;4.13;2.90;;;19.30;99.90;;;;;;5073870;28;20023;-78
2024/03/14 07:48:58;;;;;;;6.77;2.90;;;19.50;99.90;;;;;;5069025;28;20048;-79
2024/03/14 07:51:26;;;;;;;3.42;2.75;;;19.60;99.90;;;;;;5067365;28;20111;-79
2024/03/14 07:53:52;;;;;;;5.82;2.60;;;19.80;99.90;;;;;;5072570;28;20106;-79
2024/03/14 07:56:18;;;;;;;4.23;2.63;;;20.00;99.90;;;;;;5073868;28;20029;-81
2024/03/14 07:58:46;;;;;;;7.05;2.88;;;20.20;99.90;;;;;;5072747;28;20264;-80
2024/03/14 08:01:15;;;;;;;5.20;3.22;;;20.20;99.90;;;;;;5072737;28;20056;-78
2024/03/14 08:03:52;;;;;;;4.78;2.30;;;20.20;99.90;;;;;;5072327;28;20074;-78
2024/03/14 08:06:18;;;;;;;4.40;2.15;;;20.50;99.90;;;;;;5073310;28;20028;-79
2024/03/14 08:08:48;;;;;;;3.90;2.40;;;20.60;99.90;;;;;;5071516;28;20027;-82
2024/03/14 08:11:14;;;;;;;7.60;3.25;;;20.80;99.90;;;;;;5058758;28;20021;-79
2024/03/14 08:13:41;;;;;;;8.00;2.85;;;20.90;99.90;;;;;;5073902;28;20033;-83
2024/03/14 08:16:18;;;;;;;4.95;2.22;;;21.00;99.90;;;;;;5072321;28;20025;-79
2024/03/14 08:18:46;;;;;;;5.47;2.67;;;21.10;99.90;;;;;;5071777;28;20029;-78
2024/03/14 08:21:13;;;;;;;6.68;2.53;;;21.20;99.90;;;;;;5071564;28;20024;-79
2024/03/14 08:23:41;;;;;;;;;;;20.90;99.90;;;;;;5073018;28;20041;-79
2024/03/14 08:26:07;;;;;;;3.15;2.63;;;20.70;99.90;;;;;;5071493;28;19904;-79
2024/03/14 08:28:38;;;;;;;6.40;2.35;;;20.60;99.90;;;;;;5072052;28;20031;-80
2024/03/14 08:31:06;;;;;;;5.07;2.53;;;20.30;99.90;;;;;;5072355;28;20082;-80
2024/03/14 08:33:34;;;;;;;2.88;2.47;;;19.70;99.90;;;;;;5071597;28;20466;-82
2024/03/14 08:36:02;;;;;;;4.13;2.67;;;19.50;99.90;;;;;;5073265;28;20055;-79
2024/03/14 08:38:29;;;;;;;3.53;2.50;;;19.70;99.90;;;;;;5072571;28;20130;-82
2024/03/14 08:40:57;;;;;;;3.95;2.50;;;19.70;99.90;;;;;;5071488;28;20028;-79
2024/03/14 08:43:24;;;;;;;5.32;2.50;;;19.50;99.90;;;;;;5072764;28;20032;-78
2024/03/14 08:45:52;;;;;;;9.90;2.70;;;19.20;99.90;;;;;;5071779;28;20029;-79
2024/03/14 08:48:21;;;;;;;4.35;2.50;;;19.20;99.90;;;;;;5072223;28;20369;-79
2024/03/14 08:50:46;;;;;;;5.00;2.45;;;19.20;99.90;;;;;;5071114;28;20028;-78
2024/03/14 08:53:12;;;;;;;3.20;2.25;;;19.80;99.90;;;;;;5071592;28;20072;-79
2024/03/14 08:55:56;;;;;;;7.00;2.53;;;20.80;99.90;;;;;;5072796;28;20025;-81
2024/03/14 08:58:25;;;;;;;4.03;2.40;;;21.00;99.90;;;;;;5071334;28;20428;-79
2024/03/14 09:00:56;;;;;;;2.63;2.30;;;20.40;99.90;;;;;;5071203;28;20021;-81
2024/03/14 09:03:22;;;;;;;3.53;2.63;;;20.40;99.90;;;;;;5069873;28;20081;-83
2024/03/14 09:05:49;;;;;;;3.55;2.75;;;21.10;99.90;;;;;;5072570;28;20013;-79
2024/03/14 09:08:18;;;;;;;;;;;21.50;99.90;;;;;;5071772;28;20115;-77
2024/03/14 09:10:45;;;;;;;2.45;2.20;;;21.20;99.90;;;;;;5070952;28;19907;-80
2024/03/14 09:13:11;;;;;;;;;;;20.50;99.90;;;;;;5071465;28;20033;-79
2024/03/14 09:15:36;;;;;;;4.20;2.67;;;20.00;99.90;;;;;;5070610;28;19911;-80
2024/03/14 09:18:03;;;;;;;4.38;2.15;;;19.70;99.90;;;;;;5070596;28;20037;-80
2024/03/14 09:20:28;;;;;;;4.70;2.70;;;19.80;99.90;;;;;;5070453;28;20043;-78
2024/03/14 09:22:55;;;;;;;4.30;2.87;;;20.00;99.90;;;;;;5069956;28;20822;-79
2024/03/14 09:25:22;;;;;;;2.47;2.20;;;20.00;99.90;;;;;;5073321;28;20309;-79
2024/03/14 09:27:48;;;;;;;2.90;2.58;;;20.10;99.90;;;;;;5070604;28;20024;-79
2024/03/14 09:30:14;;;;;;;3.65;2.30;;;20.20;99.90;;;;;;5071850;28;20062;-82
2024/03/14 09:32:41;;;;;;;4.07;2.67;;;20.20;99.90;;;;;;5070920;28;20033;-79
2024/03/14 09:35:11;;;;;;;2.90;2.33;;;20.20;99.90;;;;;;5071415;28;20025;-78
2024/03/14 09:37:37;;;;;;;2.97;2.15;;;20.10;99.90;;;;;;5071791;28;20024;-82
2024/03/14 09:40:07;;;;;;;3.55;2.15;;;20.20;99.90;;;;;;5070942;28;20024;-78
2024/03/14 09:42:33;;;;;;;2.65;2.03;;;20.30;99.90;;;;;;5071003;28;20407;-77
2024/03/14 09:45:02;;;;;;;4.23;2.40;;;20.20;99.90;;;;;;5068612;28;20029;-79
2024/03/14 09:47:37;;;;;;;3.10;2.13;;;20.30;99.90;;;;;;5069990;28;20078;-80
2024/03/14 09:50:15;;;;;;;4.20;2.45;;;20.30;99.90;;;;;;5071679;28;20024;-79
2024/03/14 09:52:42;;;;;;;3.25;2.33;;;20.10;99.90;;;;;;5062818;28;20025;-78
2024/03/14 09:55:12;;;;;;;2.53;2.15;;;20.20;99.90;;;;;;5069856;28;20020;-79
2024/03/14 09:57:38;;;;;;;5.10;2.05;;;20.30;99.90;;;;;;5071626;28;20017;-78
2024/03/14 10:00:15;;;;;;;2.50;2.10;;;20.10;99.90;;;;;;5070312;28;20351;-79
2024/03/14 10:02:41;;;;;;;;;;;20.00;99.90;;;;;;5071187;28;20078;-80
2024/03/14 10:05:11;;;;;;;;;;;20.50;99.90;;;;;;5070349;28;19942;-80
2024/03/14 10:07:42;;;;;;;4.32;2.30;;;21.50;99.90;;;;;;5070228;28;19905;-80
2024/03/14 10:10:10;;;;;;;6.32;2.00;;;22.10;99.90;;;;;;5072076;28;20025;-80
2024/03/14 10:12:38;;;;;;;3.20;2.50;;;21.60;99.90;;;;;;5070820;28;20024;-78
2024/03/14 10:15:16;;;;;;;3.38;2.13;;;21.20;99.90;;;;;;5060825;28;20373;-78
2024/03/14 10:17:47;;;;;;;10.18;2.50;;;21.20;99.90;;;;;;5068965;28;20016;-78
2024/03/14 10:20:14;;;;;;;3.30;2.35;;;21.50;99.90;;;;;;5071434;28;20457;-79
2024/03/14 10:22:41;;;;;;;3.92;2.38;;;22.10;99.90;;;;;;5069119;28;20049;-79
2024/03/14 10:25:16;;;;;;;6.32;2.20;;;22.50;99.90;;;;;;5069243;28;20059;-78
2024/03/14 10:27:48;;;;;;;7.72;2.67;;;21.90;99.90;;;;;;5066550;28;20386;-77
2024/03/14 10:30:14;;;;;;;8.75;2.40;;;22.00;99.90;;;;;;5069224;28;20025;-77
2024/03/14 10:32:40;;;;;;;3.00;2.10;;;22.20;99.90;;;;;;5055137;28;20024;-77
2024/03/14 10:35:14;;;;;;;2.55;2.17;;;21.80;99.90;;;;;;5069142;28;20381;-78
2024/03/14 10:37:46;;;;;;;5.57;2.03;;;21.50;99.90;;;;;;5068890;28;20024;-78
2024/03/14 10:40:29;;;;;;;4.28;2.25;;;21.10;99.90;;;;;;5069339;28;20535;-78
2024/03/14 10:42:55;;;;;;;4.13;2.22;;;21.20;99.90;;;;;;5070391;28;20445;-78
2024/03/14 10:45:22;;;;;;;5.57;2.00;;;21.10;99.90;;;;;;5069262;28;20047;-79
2024/03/14 10:47:51;;;;;;;5.35;2.40;;;21.90;99.90;;;;;;5069443;28;20059;-80
2024/03/14 10:50:19;;;;;;;3.50;2.08;;;22.10;99.90;;;;;;5069039;28;20037;-77
2024/03/14 10:52:49;;;;;;;2.40;1.88;;;23.20;99.90;;;;;;5069139;28;20028;-77
2024/03/14 10:55:21;;;;;;;3.05;2.13;;;22.60;99.90;;;;;;5069046;28;20021;-78
2024/03/14 10:57:48;;;;;;;4.93;1.90;;;22.00;99.90;;;;;;5070962;28;20537;-82
2024/03/14 11:00:19;;;;;;;6.32;2.10;;;22.30;99.90;;;;;;5070012;28;20109;-78
2024/03/14 11:02:50;;;;;;;4.72;2.45;;;23.00;99.90;;;;;;5056013;28;20021;-76
2024/03/14 11:05:22;;;;;;;5.65;1.85;;;23.30;99.90;;;;;;5068918;28;20090;-78
2024/03/14 11:07:53;;;;;;;5.25;1.75;;;23.50;99.90;;;;;;5070628;28;20453;-77
2024/03/14 11:10:28;;;;;;;5.30;1.88;;;23.10;99.90;;;;;;5069062;28;20023;-78
2024/03/14 11:12:58;;;;;;;2.42;1.80;;;22.30;99.90;;;;;;5069180;28;20519;-77
2024/03/14 11:15:24;;;;;;;2.75;2.25;;;21.90;99.90;;;;;;5070634;28;20416;-81
2024/03/14 11:17:54;;;;;;;3.47;2.10;;;21.70;99.90;;;;;;5068881;28;20028;-76
2024/03/14 11:20:25;;;;;;;3.67;1.67;;;21.70;99.90;;;;;;5067605;28;20369;-77
2024/03/14 11:22:58;;;;;;;3.50;1.98;;;21.60;99.90;;;;;;5068475;28;20063;-77
2024/03/14 11:25:27;;;;;;;3.33;1.92;;;21.50;99.90;;;;;;5069432;28;20032;-77
2024/03/14 11:27:57;;;;;;;3.95;1.92;;;21.40;99.90;;;;;;5072352;28;20032;-76
2024/03/14 11:30:24;;;;;;;4.03;1.92;;;21.20;99.90;;;;;;5071883;28;20033;-78
2024/03/14 11:32:58;;;;;;;6.30;2.40;;;21.00;99.90;;;;;;5073553;28;20045;-78
2024/03/14 11:35:40;;;;;;;6.53;1.88;;;21.10;99.90;;;;;;5061621;28;20476;-82
2024/03/14 11:38:15;;;;;;;4.63;2.00;;;21.10;99.90;;;;;;5071408;28;20087;-81
2024/03/14 11:40:44;;;;;;;5.82;2.13;;;21.10;99.90;;;;;;5072692;28;20070;-78
2024/03/14 11:43:18;;;;;;;7.78;2.15;;;21.10;99.90;;;;;;5072500;28;20081;-78
2024/03/14 11:45:44;;;;;;;2.55;1.67;;;21.10;99.90;;;;;;5072337;28;20484;-78
2024/03/14 11:48:19;;;;;;;3.58;1.70;;;21.10;99.90;;;;;;5072448;28;20032;-79
2024/03/14 11:50:47;;;;;;;3.15;1.73;;;21.00;99.90;;;;;;5072502;28;20054;-78
2024/03/14 11:53:17;;;;;;;3.95;2.08;;;21.10;99.90;;;;;;5073967;28;20056;-79
2024/03/14 11:55:46;;;;;;;8.02;2.10;;;21.00;99.90;;;;;;5073751;28;20099;-77
2024/03/14 11:58:16;;;;;;;4.25;1.63;;;21.00;99.90;;;;;;5072194;28;20109;-81
2024/03/14 12:00:44;;;;;;;8.10;2.08;;;21.10;99.90;;;;;;5071926;28;20048;-77
2024/03/14 12:03:11;;;;;;;3.10;1.80;;;21.10;99.90;;;;;;5072028;28;20028;-77
2024/03/14 12:05:42;;;;;;;2.97;1.75;;;21.10;99.90;;;;;;5071898;28;20037;-80
2024/03/14 12:08:12;;;;;;;9.68;3.60;;;21.10;99.90;;;;;;5072108;28;20052;-81
2024/03/14 12:10:39;;;;;;;7.68;1.95;;;21.10;99.90;;;;;;5071719;28;20008;-78
2024/03/14 12:13:13;;;;;;;10.65;2.80;;;21.10;99.90;;;;;;5072171;28;20040;-78
2024/03/14 12:15:38;;;;;;;9.50;2.13;;;21.10;99.90;;;;;;5073236;28;20020;-78
2024/03/14 12:18:04;;;;;;;7.47;2.10;;;21.00;99.90;;;;;;5071871;28;20036;-80
2024/03/14 12:20:32;;;;;;;15.65;2.45;;;21.00;99.90;;;;;;5071993;28;20488;-77
2024/03/14 12:22:58;;;;;;;5.28;2.45;;;21.00;99.90;;;;;;5072403;28;20044;-78
2024/03/14 12:25:24;;;;;;;13.35;2.63;;;21.00;99.90;;;;;;5071935;28;20043;-77
2024/03/14 12:27:53;;;;;;;7.60;2.95;;;21.00;99.90;;;;;;5072711;28;20044;-77
2024/03/14 12:30:20;;;;;;;8.45;2.28;;;21.00;99.90;;;;;;5071063;28;20064;-77
2024/03/14 12:32:54;;;;;;;;;;;21.10;99.90;;;;;;5071719;28;20051;-77
2024/03/14 12:35:20;;;;;;;10.40;1.90;;;21.10;99.90;;;;;;5073304;28;19907;-77
2024/03/14 12:37:48;;;;;;;5.35;1.88;;;21.00;99.90;;;;;;5071465;28;20028;-76
2024/03/14 12:40:17;;;;;;;5.97;2.10;;;20.90;99.90;;;;;;5072842;28;20025;-78
2024/03/14 12:42:46;;;;;;;6.90;2.20;;;20.90;99.90;;;;;;5072213;28;20024;-80
2024/03/14 12:45:14;;;;;;;3.65;1.70;;;20.90;99.90;;;;;;5059559;28;20041;-78
2024/03/14 12:47:41;;;;;;;7.25;2.30;;;20.90;99.90;;;;;;5072424;28;20017;-78
2024/03/14 12:50:24;;;;;;;5.10;2.13;;;20.90;99.90;;;;;;5072446;28;20033;-77
2024/03/14 12:53:06;;;;;;;7.35;2.55;;;21.00;99.90;;;;;;5073503;28;20715;-78